Time;durP1;ratioP1;P1;durP2;ratioP2;P2;SDS_P1;SDS_P2;PMS_P1;PMS_P2;Temp;Humidity;BMP_temperature;BMP_pressure;BME280_temperature;BME280_humidity;BME280_pressure;Samples;Min_cycle;Max_cycle;Signal;HPM_P1;HPM_P2
2021/09/11 00:01:17;;;;;;;450.83;423.63;;;;;;;13.01;100.00;94986.88;10486579;28;20055;-74
2021/09/11 00:06:18;;;;;;;445.88;419.13;;;;;;;12.92;100.00;94984.75;10486791;28;20052;-74
2021/09/11 00:11:19;;;;;;;479.30;449.55;;;;;;;12.93;100.00;94988.25;10485449;28;20025;-74
2021/09/11 00:16:19;;;;;;;442.63;416.03;;;;;;;12.88;100.00;94985.59;10486020;28;20029;-74
2021/09/11 00:21:20;;;;;;;483.73;454.30;;;;;;;12.82;100.00;94984.81;10486198;28;20293;-74
2021/09/11 00:26:20;;;;;;;464.43;436.53;;;;;;;12.71;100.00;94989.50;10486073;28;20037;-73
2021/09/11 00:31:20;;;;;;;462.58;435.00;;;;;;;12.58;100.00;94990.13;10485749;28;20279;-74
2021/09/11 00:36:21;;;;;;;409.13;385.40;;;;;;;12.56;100.00;94998.50;10485732;28;20047;-73
2021/09/11 00:41:21;;;;;;;441.67;415.90;;;;;;;12.52;100.00;95005.53;10484676;28;20032;-74
2021/09/11 00:46:22;;;;;;;441.92;416.08;;;;;;;12.30;100.00;95006.69;10484765;28;20028;-73
2021/09/11 00:51:22;;;;;;;464.52;436.80;;;;;;;12.09;100.00;95000.59;10485950;28;20098;-73
2021/09/11 00:56:22;;;;;;;526.67;494.37;;;;;;;11.98;100.00;95000.94;10492973;28;20464;-74
2021/09/11 01:01:23;;;;;;;632.00;591.15;;;;;;;12.03;100.00;94996.31;10492914;28;20385;-74
2021/09/11 01:06:24;;;;;;;544.43;510.33;;;;;;;12.03;100.00;95006.28;10493349;28;20044;-74
2021/09/11 01:11:25;;;;;;;424.27;400.00;;;;;;;12.04;100.00;95000.63;10493311;28;20335;-73
2021/09/11 01:16:26;;;;;;;431.90;407.23;;;;;;;12.00;100.00;94993.38;10492955;28;20042;-73
2021/09/11 01:21:26;;;;;;;361.98;341.77;;;;;;;12.01;100.00;94998.47;10492825;28;20111;-73
2021/09/11 01:26:26;;;;;;;377.00;355.10;;;;;;;12.03;100.00;94995.50;10490552;28;20020;-73
2021/09/11 01:31:33;;;;;;;433.57;408.60;;;;;;;11.93;100.00;94997.13;10492044;28;20026;-73
2021/09/11 01:36:33;;;;;;;426.77;402.23;;;;;;;11.89;100.00;94996.06;10492396;28;20321;-73
2021/09/11 01:41:34;;;;;;;533.58;500.90;;;;;;;11.84;100.00;95003.38;10491966;28;20478;-73
2021/09/11 01:46:34;;;;;;;550.60;517.00;;;;;;;11.52;100.00;95007.22;10491948;28;20024;-73
2021/09/11 01:51:44;;;;;;;481.13;452.63;;;;;;;11.28;100.00;95005.88;10492016;28;20016;-73
2021/09/11 01:56:45;;;;;;;511.63;480.95;;;;;;;11.26;100.00;94999.16;10491157;28;20035;-73
2021/09/11 02:01:45;;;;;;;510.73;480.03;;;;;;;11.20;100.00;95005.63;10491098;28;20510;-74
2021/09/11 02:06:45;;;;;;;594.27;556.87;;;;;;;11.25;100.00;94997.56;10490561;28;20063;-74
2021/09/11 02:11:46;;;;;;;633.90;593.40;;;;;;;11.23;100.00;94995.16;10490785;28;20658;-73
2021/09/11 02:16:47;;;;;;;642.60;601.38;;;;;;;11.17;100.00;95000.81;10490598;28;20438;-74
2021/09/11 02:21:47;;;;;;;702.53;656.70;;;;;;;11.13;100.00;94989.75;10490184;28;20033;-74
2021/09/11 02:26:48;;;;;;;673.70;630.00;;;;;;;11.09;100.00;94997.59;10490052;28;20035;-74
2021/09/11 02:31:48;;;;;;;626.73;586.80;;;;;;;11.02;100.00;94985.47;10490115;28;20262;-74
2021/09/11 02:36:49;;;;;;;647.08;605.30;;;;;;;10.95;100.00;94985.72;10490109;28;20031;-73
2021/09/11 02:41:49;;;;;;;652.03;610.53;;;;;;;10.72;100.00;94984.41;10488815;28;20368;-73
2021/09/11 02:46:50;;;;;;;728.75;681.10;;;;;;;10.77;100.00;94977.13;10489282;28;20043;-73
2021/09/11 02:51:50;;;;;;;718.25;671.35;;;;;;;10.80;100.00;94985.72;10489300;28;20024;-73
2021/09/11 02:56:50;;;;;;;708.65;662.03;;;;;;;10.74;100.00;94992.97;10488941;28;20031;-73
2021/09/11 03:01:51;;;;;;;569.77;534.77;;;;;;;10.81;100.00;94988.16;10487597;28;20048;-73
2021/09/11 03:06:51;;;;;;;564.77;530.37;;;;;;;10.66;100.00;94996.19;10487950;28;20043;-73
2021/09/11 03:11:51;;;;;;;768.93;717.60;;;;;;;10.65;100.00;94998.09;10487913;28;20273;-74
2021/09/11 03:16:52;;;;;;;575.53;540.03;;;;;;;10.75;100.00;94994.59;10486499;28;20028;-73
2021/09/11 03:21:52;;;;;;;628.90;589.47;;;;;;;10.64;100.00;94999.16;10486179;28;20131;-73
2021/09/11 03:26:52;;;;;;;684.93;640.80;;;;;;;10.50;100.00;95004.22;10486383;28;20283;-73
2021/09/11 03:31:53;;;;;;;5.37;3.40;;;;;;;10.49;100.00;95004.50;10485786;28;20267;-73
2021/09/11 03:36:53;;;;;;;4.93;3.40;;;;;;;10.50;100.00;95012.28;10485358;28;20028;-74
2021/09/11 03:41:54;;;;;;;6.13;3.90;;;;;;;10.42;100.00;95010.13;10486747;28;20127;-73
2021/09/11 03:46:54;;;;;;;5.32;3.58;;;;;;;10.34;100.00;95011.47;10487336;28;20043;-73
2021/09/11 03:51:55;;;;;;;3.87;3.47;;;;;;;10.37;100.00;95007.44;10486693;28;20017;-73
2021/09/11 03:56:55;;;;;;;8.77;4.23;;;;;;;10.41;100.00;95011.22;10485514;28;20266;-73
2021/09/11 04:01:55;;;;;;;6.43;3.93;;;;;;;10.29;100.00;95003.34;10485935;28;20051;-73
2021/09/11 04:06:56;;;;;;;10.53;3.77;;;;;;;10.18;100.00;95012.44;10486313;28;20029;-73
2021/09/11 04:11:56;;;;;;;5.60;3.50;;;;;;;10.22;100.00;95013.53;10487014;28;20285;-73
2021/09/11 04:16:56;;;;;;;5.50;3.70;;;;;;;10.24;100.00;95014.91;10486245;28;20061;-73
2021/09/11 04:21:57;;;;;;;5.07;3.43;;;;;;;10.30;100.00;95010.34;10486293;28;20138;-73
2021/09/11 04:26:57;;;;;;;6.23;3.63;;;;;;;10.47;100.00;95014.72;10486626;28;20036;-73
2021/09/11 04:31:57;;;;;;;88.53;84.03;;;;;;;10.50;100.00;95019.56;10494945;28;20032;-73
2021/09/11 04:36:58;;;;;;;48.23;45.33;;;;;;;10.48;100.00;95016.31;10494286;28;20093;-73
2021/09/11 04:41:58;;;;;;;198.07;187.30;;;;;;;10.50;100.00;95022.25;10494311;28;20550;-73
2021/09/11 04:46:58;;;;;;;47.03;44.25;;;;;;;10.62;100.00;95022.81;10494295;28;20024;-73
2021/09/11 04:51:59;;;;;;;35.23;32.83;;;;;;;10.70;100.00;95029.53;10494163;28;20036;-73
2021/09/11 04:56:59;;;;;;;42.20;39.03;;;;;;;10.96;100.00;95024.19;10493233;28;20024;-73
2021/09/11 05:01:59;;;;;;;43.13;40.40;;;;;;;11.21;100.00;95024.19;10493529;28;20119;-74
2021/09/11 05:07:00;;;;;;;15.70;14.55;;;;;;;11.48;100.00;95028.47;10493147;28;20031;-73
2021/09/11 05:12:04;;;;;;;10.93;7.43;;;;;;;11.67;100.00;95023.34;10490277;28;20498;-73
2021/09/11 05:17:05;;;;;;;13.90;11.32;;;;;;;11.95;100.00;95023.81;10491974;28;20040;-74
2021/09/11 05:22:05;;;;;;;13.52;10.10;;;;;;;12.27;100.00;95012.66;10491664;28;20029;-74
2021/09/11 05:27:06;;;;;;;86.03;81.20;;;;;;;12.68;100.00;95024.31;10492270;28;20024;-73
2021/09/11 05:32:06;;;;;;;84.70;79.97;;;;;;;13.03;100.00;95022.44;10492313;28;20475;-73
2021/09/11 05:37:07;;;;;;;197.05;186.10;;;;;;;13.56;100.00;95019.06;10491836;28;20020;-73
2021/09/11 05:42:08;;;;;;;298.83;281.80;;;;;;;14.15;100.00;95017.09;10490836;28;20032;-73
2021/09/11 05:47:08;;;;;;;391.40;367.90;;;;;;;14.63;100.00;95011.63;10491430;28;20089;-73
2021/09/11 05:52:08;;;;;;;72.72;68.68;;;;;;;15.00;100.00;95011.91;10491720;28;20025;-73
2021/09/11 05:57:09;;;;;;;115.10;108.97;;;;;;;15.13;100.00;95008.47;10491131;28;20086;-73
2021/09/11 06:02:11;;;;;;;130.43;123.60;;;;;;;15.15;100.00;95006.28;10491312;28;20119;-73
2021/09/11 06:07:11;;;;;;;101.20;95.78;;;;;;;15.57;100.00;95003.66;10491861;28;20036;-73
2021/09/11 06:12:12;;;;;;;325.83;307.17;;;;;;;15.90;100.00;95000.94;10492162;28;20507;-73
2021/09/11 06:17:12;;;;;;;327.93;308.80;;;;;;;16.06;100.00;95004.97;10491955;28;20028;-74
2021/09/11 06:22:13;;;;;;;126.20;119.00;;;;;;;16.13;99.94;95012.69;10491706;28;20290;-74
2021/09/11 06:27:13;;;;;;;267.33;251.63;;;;;;;16.27;100.00;95015.41;10491141;28;20781;-74
2021/09/11 06:32:14;;;;;;;350.63;329.03;;;;;;;16.45;98.17;95010.97;10491287;28;20029;-74
2021/09/11 06:37:14;;;;;;;262.47;247.27;;;;;;;16.46;95.70;95007.13;10491101;28;20036;-75
2021/09/11 06:42:17;;;;;;;218.20;205.73;;;;;;;16.47;97.96;95003.31;10490340;28;20025;-73
2021/09/11 06:47:17;;;;;;;182.95;172.30;;;;;;;16.77;97.59;95011.09;10490737;28;20111;-74
2021/09/11 06:52:18;;;;;;;271.67;255.70;;;;;;;17.05;94.33;95009.13;10490480;28;20031;-74
2021/09/11 06:57:18;;;;;;;73.85;69.63;;;;;;;17.94;84.86;95001.22;10490165;28;20101;-73
2021/09/11 07:02:19;;;;;;;101.97;95.27;;;;;;;19.00;78.60;94994.13;10489921;28;20446;-74
2021/09/11 07:07:19;;;;;;;10.83;9.67;;;;;;;20.88;66.76;94998.03;10490258;28;20300;-74
2021/09/11 07:12:22;;;;;;;13.67;3.77;;;;;;;23.28;50.46;94972.69;10489368;28;20027;-75
2021/09/11 07:17:23;;;;;;;14.88;5.28;;;;;;;25.60;41.47;94972.31;10488846;28;20496;-74
2021/09/11 07:22:23;;;;;;;7.10;4.33;;;;;;;26.97;38.13;94973.78;10488629;28;20100;-74
2021/09/11 07:27:23;;;;;;;7.13;3.73;;;;;;;28.54;35.93;94956.56;10486811;28;21089;-75
2021/09/11 07:32:26;;;;;;;40.93;38.07;;;;;;;29.79;32.83;94964.72;10488184;28;20338;-74
2021/09/11 07:37:26;;;;;;;44.53;41.30;;;;;;;29.47;32.35;94961.84;10487994;28;20286;-75
2021/09/11 07:42:26;;;;;;;102.53;96.73;;;;;;;29.31;32.99;94954.66;10487755;28;20557;-75
2021/09/11 07:47:27;;;;;;;456.13;420.27;;;;;;;30.73;31.11;94956.50;10487694;28;20032;-74
2021/09/11 07:52:27;;;;;;;287.33;265.98;;;;;;;31.23;30.73;94938.97;10487947;28;20024;-75
2021/09/11 07:57:27;;;;;;;309.40;285.13;;;;;;;32.50;28.89;94933.44;10487076;28;20045;-74
2021/09/11 08:02:28;;;;;;;535.90;490.23;;;;;;;32.14;28.59;94934.53;10486543;28;20048;-75
2021/09/11 08:07:28;;;;;;;248.47;230.57;;;;;;;32.92;27.93;94936.25;10487439;28;20028;-74
2021/09/11 08:12:29;;;;;;;355.97;326.40;;;;;;;33.61;26.23;94930.69;10487391;28;20028;-74
2021/09/11 08:17:29;;;;;;;545.17;499.20;;;;;;;33.61;27.99;94919.53;10486558;28;20047;-74
2021/09/11 08:22:30;;;;;;;122.25;114.40;;;;;;;32.10;27.75;94914.28;10487333;28;20107;-75
2021/09/11 08:27:30;;;;;;;74.30;69.47;;;;;;;30.33;31.00;94914.09;10487034;28;20032;-74
2021/09/11 08:32:31;;;;;;;120.10;112.72;;;;;;;30.82;30.34;94904.13;10486193;28;20424;-74
2021/09/11 08:37:32;;;;;;;298.20;275.08;;;;;;;31.75;29.55;94906.97;10487163;28;20029;-74
2021/09/11 08:42:32;;;;;;;546.20;500.60;;;;;;;33.59;26.21;94894.06;10486972;28;20039;-75
2021/09/11 08:47:34;;;;;;;587.10;538.08;;;;;;;32.61;25.93;94903.53;10486171;28;20028;-74
2021/09/11 08:52:34;;;;;;;85.63;80.43;;;;;;;30.31;30.81;94897.88;10486641;28;20084;-74
2021/09/11 08:57:35;;;;;;;138.20;129.43;;;;;;;29.54;31.34;94897.38;10486288;28;20067;-74
2021/09/11 09:02:35;;;;;;;161.57;150.83;;;;;;;28.29;32.76;94897.13;10486007;28;20334;-74
2021/09/11 09:07:43;;;;;;;137.25;129.02;;;;;;;28.81;32.71;94890.75;10486457;28;20028;-74
2021/09/11 09:12:49;;;;;;;210.63;196.25;;;;;;;31.96;25.45;94876.25;10486499;28;20024;-74
2021/09/11 09:17:52;;;;;;;131.70;123.47;;;;;;;31.67;25.54;94873.66;10494401;28;20025;-74
2021/09/11 09:22:58;;;;;;;294.50;271.95;;;;;;;29.27;27.88;94881.09;10493930;28;20060;-72
2021/09/11 09:28:05;;;;;;;31.00;28.80;;;;;;;27.30;32.93;94876.47;10494269;28;20024;-73
2021/09/11 09:33:08;;;;;;;13.85;12.65;;;;;;;27.48;33.43;94870.34;10493002;28;20031;-75
2021/09/11 09:38:09;;;;;;;17.45;16.25;;;;;;;28.11;31.94;94866.59;10493303;28;20097;-73
2021/09/11 09:43:13;;;;;;;336.02;309.27;;;;;;;29.37;29.46;94855.41;10492937;28;20028;-74
2021/09/11 09:48:14;;;;;;;748.10;682.50;;;;;;;31.85;26.67;94850.53;10492791;28;20025;-74
2021/09/11 09:53:16;;;;;;;841.03;764.85;;;;;;;34.14;23.67;94842.69;10493217;28;20031;-74
2021/09/11 09:58:17;;;;;;;857.60;779.38;;;;;;;36.77;21.11;94831.41;10492528;28;20059;-73
2021/09/11 10:03:18;;;;;;;874.08;793.88;;;;;;;39.03;18.56;94829.56;10492410;28;20032;-74
2021/09/11 10:08:19;;;;;;;1142.47;999.90;;;;;;;39.17;19.01;94831.84;10492020;28;20024;-74
2021/09/11 10:13:26;;;;;;;1021.95;925.00;;;;;;;40.75;17.44;94816.31;10491845;28;20025;-74
2021/09/11 10:18:32;;;;;;;1013.30;919.53;;;;;;;40.65;16.59;94815.53;10491483;28;20453;-74
2021/09/11 10:23:32;;;;;;;1051.43;952.97;;;;;;;41.16;15.24;94816.13;10491033;28;20028;-74
2021/09/11 10:28:33;;;;;;;796.40;721.97;;;;;;;39.77;15.70;94818.75;10491155;28;20028;-74
2021/09/11 10:33:40;;;;;;;671.17;609.83;;;;;;;40.81;17.05;94802.38;10491386;28;20099;-74
2021/09/11 10:38:42;;;;;;;793.97;720.67;;;;;;;41.86;15.14;94803.25;10491337;28;20526;-74
2021/09/11 10:44:05;;;;;;;978.03;885.60;;;;;;;42.06;15.66;94797.03;10490491;28;20128;-74
2021/09/11 10:49:28;;;;;;;1105.15;993.85;;;;;;;41.40;15.43;94795.75;10490449;28;20446;-74
2021/09/11 10:54:43;;;;;;;998.85;904.50;;;;;;;39.73;16.70;94784.34;10490466;28;20067;-74
2021/09/11 10:59:47;;;;;;;597.88;543.00;;;;;;;37.20;18.08;94783.81;10490128;28;20068;-73
2021/09/11 11:05:20;;;;;;;577.88;524.25;;;;;;;34.42;20.22;94773.66;10489928;28;20028;-73
2021/09/11 11:10:22;;;;;;;348.83;319.63;;;;;;;32.31;21.52;94771.50;10488705;28;20712;-74
2021/09/11 11:15:25;;;;;;;141.52;132.60;;;;;;;31.27;21.05;94758.44;10489466;28;20082;-73
2021/09/11 11:20:28;;;;;;;179.45;167.50;;;;;;;31.23;22.36;94757.66;10488964;28;20893;-75
2021/09/11 11:25:40;;;;;;;175.50;163.80;;;;;;;30.47;22.38;94752.47;10488949;28;20032;-74
2021/09/11 11:30:42;;;;;;;220.00;204.68;;;;;;;29.11;22.99;94746.59;10488487;28;20032;-74
2021/09/11 11:35:42;;;;;;;253.05;234.35;;;;;;;28.35;24.92;94745.53;10488674;28;20518;-74
2021/09/11 11:40:43;;;;;;;104.63;98.03;;;;;;;27.79;23.15;94737.28;10487919;28;20140;-74
2021/09/11 11:45:46;;;;;;;65.13;61.33;;;;;;;27.44;23.38;94735.84;10487870;28;20030;-74
2021/09/11 11:50:47;;;;;;;186.25;174.20;;;;;;;26.61;23.11;94732.25;10488586;28;20406;-74
2021/09/11 11:55:52;;;;;;;228.95;213.23;;;;;;;26.26;21.76;94733.44;10488310;28;20027;-73
2021/09/11 12:00:55;;;;;;;144.85;136.20;;;;;;;25.96;21.05;94725.13;10488048;28;20504;-74
2021/09/11 12:05:55;;;;;;;67.25;62.65;;;;;;;25.86;21.45;94720.28;10488497;28;20127;-74
2021/09/11 12:10:56;;;;;;;138.10;129.90;;;;;;;25.98;19.43;94727.50;10487921;28;20025;-74
2021/09/11 12:15:57;;;;;;;25.60;24.00;;;;;;;25.89;18.54;94709.28;10488338;28;20033;-74
2021/09/11 12:20:57;;;;;;;196.93;183.87;;;;;;;25.57;18.96;94711.59;10487619;28;20028;-73
2021/09/11 12:26:06;;;;;;;43.03;40.60;;;;;;;25.72;18.06;94699.63;10487646;28;20344;-73
2021/09/11 12:31:08;;;;;;;120.10;112.88;;;;;;;25.80;20.42;94695.03;10488030;28;20067;-73
2021/09/11 12:36:35;;;;;;;133.85;125.90;;;;;;;25.67;17.98;94688.16;10485201;28;20033;-73
2021/09/11 12:41:37;;;;;;;203.32;190.15;;;;;;;25.64;16.69;94681.41;10487510;28;20020;-73
2021/09/11 12:46:40;;;;;;;43.95;41.45;;;;;;;25.29;17.98;94670.66;10487011;28;20480;-74
2021/09/11 12:51:41;;;;;;;29.45;27.65;;;;;;;25.28;17.87;94669.84;10493534;28;20449;-73
2021/09/11 12:56:42;;;;;;;13.13;12.38;;;;;;;25.32;18.62;94665.22;10495515;28;20094;-74
2021/09/11 13:01:44;;;;;;;22.50;21.27;;;;;;;25.39;20.46;94651.56;10494794;28;20045;-74
2021/09/11 13:06:45;;;;;;;18.08;17.08;;;;;;;25.44;19.40;94652.41;10494994;28;20480;-74
2021/09/11 13:11:46;;;;;;;27.83;26.42;;;;;;;25.28;17.69;94650.59;10506947;28;20024;-74
2021/09/11 13:16:47;;;;;;;57.15;54.00;;;;;;;25.04;18.15;94652.59;10494322;28;20111;-74
2021/09/11 13:21:47;;;;;;;55.03;52.22;;;;;;;24.89;18.40;94648.81;10494199;28;20025;-74
2021/09/11 13:26:48;;;;;;;154.67;145.20;;;;;;;24.85;18.79;94647.97;10494282;28;20028;-74
2021/09/11 13:31:48;;;;;;;125.63;118.57;;;;;;;24.86;18.60;94651.50;10493589;28;20050;-74
2021/09/11 13:36:49;;;;;;;19.97;18.83;;;;;;;24.80;18.67;94644.75;10493638;28;20032;-74
2021/09/11 13:41:49;;;;;;;9.83;9.17;;;;;;;24.79;18.96;94643.16;10493224;28;20078;-74
2021/09/11 13:46:51;;;;;;;13.80;12.50;;;;;;;24.77;20.88;94645.44;10491308;28;20271;-74
2021/09/11 13:51:51;;;;;;;14.57;13.68;;;;;;;24.64;19.66;94637.38;10492958;28;20275;-74
2021/09/11 13:56:52;;;;;;;13.30;12.43;;;;;;;24.63;19.48;94637.75;10493031;28;20027;-74
2021/09/11 14:01:52;;;;;;;6.00;3.97;;;;;;;24.55;19.68;94636.81;10491247;28;20301;-73
2021/09/11 14:06:53;;;;;;;5.87;2.97;;;;;;;24.51;20.31;94635.97;10492513;28;20025;-74
2021/09/11 14:11:53;;;;;;;3.00;2.80;;;;;;;24.34;19.33;94635.25;10492205;28;20274;-73
2021/09/11 14:16:53;;;;;;;12.50;1.92;;;;;;;24.31;21.97;94632.44;10491709;28;20028;-74
2021/09/11 14:21:54;;;;;;;2.93;1.90;;;;;;;24.16;22.94;94628.66;10491962;28;20031;-73
2021/09/11 14:26:54;;;;;;;10.60;2.23;;;;;;;24.16;20.81;94626.69;10491815;28;20051;-73
2021/09/11 14:31:54;;;;;;;8.37;3.17;;;;;;;24.11;20.38;94623.44;10491440;28;20438;-74
2021/09/11 14:36:55;;;;;;;4.37;1.73;;;;;;;24.03;21.28;94628.00;10491104;28;20059;-74
2021/09/11 14:41:56;;;;;;;9.73;2.10;;;;;;;23.98;22.30;94629.06;10491055;28;20078;-74
2021/09/11 14:46:57;;;;;;;3.03;1.77;;;;;;;23.95;23.04;94620.78;10490720;28;20173;-74
2021/09/11 14:51:57;;;;;;;3.97;1.93;;;;;;;23.82;23.18;94614.59;10490506;28;20098;-74
2021/09/11 14:56:57;;;;;;;3.40;2.33;;;;;;;23.65;23.41;94618.56;10489093;28;20269;-73
2021/09/11 15:01:58;;;;;;;3.17;2.20;;;;;;;23.68;23.96;94612.34;10490445;28;20295;-74
2021/09/11 15:06:58;;;;;;;4.23;2.57;;;;;;;23.64;25.49;94615.03;10489937;28;20035;-74
2021/09/11 15:11:59;;;;;;;5.97;2.83;;;;;;;23.58;26.60;94616.47;10489999;28;20020;-73
2021/09/11 15:17:00;;;;;;;6.13;4.80;;;;;;;23.56;26.62;94618.78;10489827;28;20274;-74
2021/09/11 15:22:01;;;;;;;16.15;15.13;;;;;;;23.42;26.97;94618.50;10489215;28;20031;-74
2021/09/11 15:27:01;;;;;;;3.83;2.27;;;;;;;23.36;27.20;94618.75;10489472;28;20039;-74
2021/09/11 15:32:02;;;;;;;5.27;3.00;;;;;;;23.23;27.98;94624.72;10489028;28;20274;-74
2021/09/11 15:37:03;;;;;;;15.88;4.15;;;;;;;23.16;27.62;94623.41;10488478;28;20333;-74
2021/09/11 15:42:03;;;;;;;4.43;3.05;;;;;;;23.08;28.06;94629.84;10488444;28;20029;-74
2021/09/11 15:47:06;;;;;;;4.95;4.55;;;;;;;23.02;27.89;94637.56;10488766;28;20086;-74
2021/09/11 15:52:06;;;;;;;4.80;3.38;;;;;;;22.85;27.89;94635.94;10488524;28;20040;-74
2021/09/11 15:57:07;;;;;;;11.15;4.80;;;;;;;22.80;28.24;94638.16;10487875;28;20033;-74
2021/09/11 16:02:07;;;;;;;9.17;8.27;;;;;;;22.65;28.35;94635.06;10488144;28;20032;-74
2021/09/11 16:07:08;;;;;;;8.60;8.00;;;;;;;22.61;28.85;94633.41;10487903;28;20280;-74
2021/09/11 16:12:09;;;;;;;298.60;275.13;;;;;;;22.49;28.90;94646.03;10487861;28;20529;-74
2021/09/11 16:17:10;;;;;;;256.80;238.10;;;;;;;22.41;28.78;94648.91;10488160;28;20495;-74
2021/09/11 16:22:10;;;;;;;24.35;23.02;;;;;;;22.23;28.88;94649.22;10487700;28;20021;-75
2021/09/11 16:27:11;;;;;;;485.60;448.20;;;;;;;22.17;30.02;94647.88;10487145;28;20033;-74
2021/09/11 16:32:11;;;;;;;275.67;256.90;;;;;;;21.98;30.33;94643.84;10487613;28;20033;-74
2021/09/11 16:37:11;;;;;;;243.47;227.20;;;;;;;21.74;29.33;94643.91;10487741;28;20089;-74
2021/09/11 16:42:12;;;;;;;123.00;115.23;;;;;;;21.62;30.46;94647.50;10486998;28;20036;-75
2021/09/11 16:47:13;;;;;;;187.57;175.52;;;;;;;21.36;30.80;94648.66;10487101;28;20033;-74
2021/09/11 16:52:13;;;;;;;219.15;204.38;;;;;;;21.14;31.67;94650.75;10487367;28;20020;-75
2021/09/11 16:57:14;;;;;;;204.43;190.30;;;;;;;21.10;34.26;94654.50;10485172;28;20384;-74
2021/09/11 17:02:14;;;;;;;206.73;192.37;;;;;;;20.75;35.60;94660.41;10487192;28;20427;-74
2021/09/11 17:07:14;;;;;;;300.63;279.90;;;;;;;20.53;38.11;94664.34;10487294;28;20028;-75
2021/09/11 17:12:15;;;;;;;180.30;167.53;;;;;;;20.16;37.92;94678.66;10485232;28;20275;-75
2021/09/11 17:17:15;;;;;;;518.77;480.07;;;;;;;19.85;38.44;94685.34;10485449;28;20278;-75
2021/09/11 17:22:16;;;;;;;593.93;548.90;;;;;;;19.56;39.18;94688.91;10484929;28;20835;-75
2021/09/11 17:27:17;;;;;;;344.30;320.70;;;;;;;19.43;39.91;94693.50;10484726;28;20028;-75
2021/09/11 17:32:17;;;;;;;382.92;355.73;;;;;;;19.34;40.02;94704.44;10484538;28;20024;-75
2021/09/11 17:37:18;;;;;;;450.87;419.77;;;;;;;19.15;40.04;94709.53;10488740;28;20103;-74
2021/09/11 17:42:18;;;;;;;272.97;255.00;;;;;;;19.16;39.96;94711.91;10492207;28;21228;-75
2021/09/11 17:47:18;;;;;;;400.03;372.97;;;;;;;19.06;42.59;94715.00;10491924;28;20387;-75
2021/09/11 17:52:19;;;;;;;370.57;344.83;;;;;;;18.77;43.72;94716.53;10491885;28;20437;-74
2021/09/11 17:57:19;;;;;;;113.00;105.53;;;;;;;18.59;44.82;94730.19;10490215;28;20538;-73
2021/09/11 18:02:19;;;;;;;893.47;822.83;;;;;;;18.47;43.60;94732.00;10490739;28;20033;-74
2021/09/11 18:07:20;;;;;;;458.00;426.47;;;;;;;18.45;42.78;94740.47;10491146;28;20039;-74
2021/09/11 18:12:20;;;;;;;701.95;648.63;;;;;;;18.24;42.89;94741.13;10490831;28;20073;-74
2021/09/11 18:17:21;;;;;;;323.35;302.35;;;;;;;18.07;43.52;94738.41;10490276;28;20062;-74
2021/09/11 18:22:24;;;;;;;880.60;813.07;;;;;;;18.12;42.04;94748.34;10489918;28;20112;-74
2021/09/11 18:27:25;;;;;;;756.00;698.13;;;;;;;18.05;42.15;94746.91;10490085;28;20285;-74
2021/09/11 18:32:25;;;;;;;903.58;831.78;;;;;;;18.02;42.19;94757.63;10489243;28;20446;-74
2021/09/11 18:37:26;;;;;;;516.90;475.57;;;;;;;17.96;42.67;94762.44;10488831;28;20066;-74
2021/09/11 18:42:26;;;;;;;362.60;339.35;;;;;;;17.82;42.93;94753.59;10490070;28;20800;-74
2021/09/11 18:47:27;;;;;;;164.60;155.33;;;;;;;17.69;43.06;94753.41;10490922;28;20037;-74
2021/09/11 18:52:27;;;;;;;435.27;405.40;;;;;;;17.58;44.22;94755.66;10493820;28;20035;-73
2021/09/11 18:57:28;;;;;;;373.33;348.70;;;;;;;17.54;43.67;94756.56;10492677;28;20127;-73
2021/09/11 19:02:28;;;;;;;343.67;321.95;;;;;;;17.38;44.87;94762.47;10489903;28;20029;-74
2021/09/11 19:07:28;;;;;;;492.60;458.80;;;;;;;17.31;45.53;94758.63;10490476;28;20607;-74
2021/09/11 19:12:29;;;;;;;278.57;261.43;;;;;;;17.08;46.52;94759.50;10490805;28;20036;-74
2021/09/11 19:17:29;;;;;;;396.43;371.40;;;;;;;16.88;48.20;94762.72;10490670;28;20394;-74
2021/09/11 19:22:30;;;;;;;999.45;920.33;;;;;;;16.76;48.60;94774.19;10490555;28;20282;-74
2021/09/11 19:27:31;;;;;;;891.78;825.92;;;;;;;16.71;48.92;94766.16;10490610;28;20032;-74
2021/09/11 19:32:32;;;;;;;572.03;532.58;;;;;;;16.65;49.29;94772.84;10490951;28;20107;-73
2021/09/11 19:37:33;;;;;;;1002.72;925.83;;;;;;;16.69;50.08;94773.81;10490327;28;20024;-74
2021/09/11 19:42:33;;;;;;;612.97;568.33;;;;;;;16.58;52.66;94771.34;10490224;28;20380;-74
2021/09/11 19:47:35;;;;;;;613.35;568.95;;;;;;;16.45;52.60;94774.97;10488094;28;20031;-74
2021/09/11 19:52:35;;;;;;;499.70;465.13;;;;;;;16.26;53.70;94785.19;10486273;28;20016;-74
2021/09/11 19:57:37;;;;;;;351.93;329.80;;;;;;;16.18;54.31;94787.50;10485578;28;20469;-73
2021/09/11 20:02:37;;;;;;;660.13;611.85;;;;;;;16.05;54.66;94780.25;10486312;28;20824;-73
2021/09/11 20:07:38;;;;;;;246.63;232.15;;;;;;;16.04;54.74;94774.00;10485923;28;20036;-73
2021/09/11 20:12:38;;;;;;;215.75;203.38;;;;;;;16.04;56.43;94779.44;10486383;28;20025;-73
2021/09/11 20:17:39;;;;;;;398.70;372.53;;;;;;;16.05;55.31;94770.19;10484870;28;20491;-73
2021/09/11 20:22:39;;;;;;;375.43;351.33;;;;;;;16.12;54.18;94761.63;10486290;28;20123;-73
2021/09/11 20:27:40;;;;;;;339.55;318.48;;;;;;;16.16;54.85;94765.34;10486078;28;20350;-74
2021/09/11 20:32:40;;;;;;;478.40;447.23;;;;;;;16.09;55.12;94764.16;10486239;28;20045;-74
2021/09/11 20:37:41;;;;;;;290.52;271.80;;;;;;;15.96;55.16;94757.69;10485715;28;20124;-74
2021/09/11 20:42:42;;;;;;;690.13;638.50;;;;;;;15.93;54.95;94769.13;10485707;28;20063;-73
2021/09/11 20:47:42;;;;;;;484.75;451.15;;;;;;;16.01;55.11;94760.28;10485583;28;20025;-74
2021/09/11 20:52:43;;;;;;;391.45;366.48;;;;;;;15.95;55.68;94761.50;10485462;28;20016;-74
2021/09/11 20:57:43;;;;;;;281.27;264.40;;;;;;;15.94;55.21;94757.19;10485091;28;20058;-73
2021/09/11 21:02:44;;;;;;;677.88;628.65;;;;;;;15.91;55.26;94768.63;10484858;28;20112;-74
2021/09/11 21:07:44;;;;;;;358.23;334.58;;;;;;;15.79;56.43;94767.25;10485014;28;20475;-73
2021/09/11 21:12:45;;;;;;;513.70;477.03;;;;;;;15.53;59.06;94765.09;10491067;28;20074;-74
2021/09/11 21:17:46;;;;;;;416.83;390.88;;;;;;;15.37;60.41;94772.72;10492922;28;20375;-73
2021/09/11 21:22:46;;;;;;;152.15;143.98;;;;;;;15.33;60.91;94760.09;10492590;28;20117;-74
2021/09/11 21:27:47;;;;;;;575.73;537.30;;;;;;;15.24;62.61;94767.31;10491440;28;20162;-74
2021/09/11 21:32:47;;;;;;;635.22;590.95;;;;;;;15.20;60.18;94769.84;10492306;28;20695;-74
2021/09/11 21:37:48;;;;;;;951.80;879.05;;;;;;;15.02;62.95;94771.53;10492139;28;20372;-73
2021/09/11 21:42:48;;;;;;;790.37;730.03;;;;;;;14.83;64.51;94775.13;10490229;28;20256;-73
2021/09/11 21:47:48;;;;;;;918.83;850.70;;;;;;;14.85;64.42;94770.22;10492649;28;20293;-74
2021/09/11 21:52:49;;;;;;;864.88;799.80;;;;;;;14.84;64.40;94765.91;10493624;28;20025;-74
2021/09/11 21:57:51;;;;;;;740.50;687.92;;;;;;;14.77;64.76;94770.13;10494587;28;20083;-73
2021/09/11 22:02:51;;;;;;;661.50;615.28;;;;;;;14.77;65.14;94768.19;10494436;28;20044;-74
2021/09/11 22:07:52;;;;;;;544.33;509.42;;;;;;;14.78;64.68;94775.22;10494296;28;20028;-74
2021/09/11 22:12:52;;;;;;;562.22;524.88;;;;;;;14.76;65.04;94769.28;10494591;28;20016;-73
2021/09/11 22:17:53;;;;;;;519.05;485.80;;;;;;;14.79;65.28;94768.72;10494295;28;20059;-74
2021/09/11 22:22:54;;;;;;;274.23;258.50;;;;;;;14.86;66.13;94773.72;10493377;28;20029;-74
2021/09/11 22:27:55;;;;;;;395.05;371.20;;;;;;;14.91;66.33;94770.91;10494379;28;20039;-73